K13-a, Nederland

2:03 AM CET op 26 februari 2017 (GMT +0100)
K14-fa-1c Sea | | Change Station

Hoogte 89 ft 53.27 °N, 3.63 °E | Updated 8 minutes ago

Geheel bewolkt
Geheel bewolkt
46 °F
Voelt als 36 °F
N
37
Wind Variabel Wind van ZZW

Vandaag
Hoog -- | Laag -- °F
--% Kans op neerslag
Gisteren
Hoog -- | Laag -- °F
Precip. -- inches
Druk 29.71 inches
Zicht 5.0 mijlen
Wolken Gering 600 ft
Gering 1500 ft
Licht bewolkt 3000 ft
Merendeels bewolkt 3900 ft
Gevoelstemperatuur 36 °F
Dauwpunt 45 °F
Vochtigheid 93%
Neerslag 0.00 inches
Dikte sneeuw Niet beschikbaar.
7:41 AM 6:19 PM
Afnemende halvemaan, 0% visible
METAR EHKV 260055Z AUTO 21032KT 8000 FEW006 FEW015CB SCT030 BKN039 08/07 Q1006
Druk 29.71 inches
Zicht 5.0 mijlen
Wolken Gering 600 ft
Gering 1500 ft
Licht bewolkt 3000 ft
Merendeels bewolkt 3900 ft
Gevoelstemperatuur 36 °F
Dauwpunt 45 °F
Vochtigheid 93%
Neerslag 0.00 inches
Dikte sneeuw Niet beschikbaar.
7:41 AM 6:19 PM
Afnemende halvemaan, 0% visible
METAR EHKV 260055Z AUTO 21032KT 8000 FEW006 FEW015CB SCT030 BKN039 08/07 Q1006

Get Your Daily Forecast Email!

Thanks for signing up!

Be on the lookout for a verification email in your inbox.

You'll start receiving the daily forecast at 8 AM.

×

10-Day Weather Forecast

×

Almanac

Astronomie

Feb. 26, 2017 Opkomst Ondergang
Werkelijke tijd
Burgerlijke schemering
Nautische schemering
Astronomische schemering
Maan
Golflengte van het zichtbare licht
Daglengte
Tomorrow will be .
, % of the Moon is Illuminated

Extremen vandaag

Country Highs Country Lows

Community

WunderPhotos

Upload Photos

1,962,540 foto’s ge-upload!

WunderBlog® & News

Nearby

Luchtkwaliteit

  Luchtkwaliteit LK-index Verontreinigende stof
Not available.

Dikte sneeuw

Station Depth Geometrische hoogte

Aardbevingen

Stad Distance Mag. Time & Date
Minimum magnitude displayed is 2.5.

Watertemperatuur langs de kust

Plaats Temperatuur

Stations

Nabije weerstations

Locatie station Temp. Gevoelstemperatuur Dauwpunt Vochtigheid Wind Precip. Hoogte Geactualiseerd Type